sensor_id;sensor_type;location;lat;lon;timestamp;pressure;altitude;pressure_sealevel;temperature;humidity
18900;BME280;9582;52.018;6.306;2023-05-10T00:00:46;104091.47;;;12.49;57.98
18900;BME280;9582;52.018;6.306;2023-05-10T00:03:12;104088.88;;;12.47;57.96
18900;BME280;9582;52.018;6.306;2023-05-10T00:05:39;104090.59;;;12.45;57.95
18900;BME280;9582;52.018;6.306;2023-05-10T00:08:05;104090.59;;;12.45;57.96
18900;BME280;9582;52.018;6.306;2023-05-10T00:10:32;104085.34;;;12.44;57.95
18900;BME280;9582;52.018;6.306;2023-05-10T00:13:00;104087.97;;;12.42;57.96
18900;BME280;9582;52.018;6.306;2023-05-10T00:15:26;104095.00;;;12.42;57.93
18900;BME280;9582;52.018;6.306;2023-05-10T00:17:53;104093.22;;;12.39;57.92
18900;BME280;9582;52.018;6.306;2023-05-10T00:20:19;104099.34;;;12.38;57.93
18900;BME280;9582;52.018;6.306;2023-05-10T00:22:46;104098.47;;;12.36;57.92
18900;BME280;9582;52.018;6.306;2023-05-10T00:25:12;104100.25;;;12.36;57.91
18900;BME280;9582;52.018;6.306;2023-05-10T00:27:38;104108.09;;;12.34;57.90
18900;BME280;9582;52.018;6.306;2023-05-10T00:30:07;104108.09;;;12.34;57.89
18900;BME280;9582;52.018;6.306;2023-05-10T00:32:34;104109.84;;;12.32;57.88
18900;BME280;9582;52.018;6.306;2023-05-10T00:35:00;104106.34;;;12.32;57.87
18900;BME280;9582;52.018;6.306;2023-05-10T00:37:27;104110.72;;;12.33;57.86
18900;BME280;9582;52.018;6.306;2023-05-10T00:39:54;104114.25;;;12.33;57.85
18900;BME280;9582;52.018;6.306;2023-05-10T00:42:20;104113.34;;;12.31;57.83
18900;BME280;9582;52.018;6.306;2023-05-10T00:44:47;104122.94;;;12.31;57.83
18900;BME280;9582;52.018;6.306;2023-05-10T00:47:15;104129.09;;;12.28;57.81
18900;BME280;9582;52.018;6.306;2023-05-10T00:49:42;104139.59;;;12.30;57.80
18900;BME280;9582;52.018;6.306;2023-05-10T00:52:10;104141.34;;;12.28;57.80
18900;BME280;9582;52.018;6.306;2023-05-10T00:54:36;104137.84;;;12.27;57.79
18900;BME280;9582;52.018;6.306;2023-05-10T00:57:03;104142.22;;;12.30;57.79
18900;BME280;9582;52.018;6.306;2023-05-10T00:59:30;104152.72;;;12.31;57.78
18900;BME280;9582;52.018;6.306;2023-05-10T01:01:57;104161.47;;;12.33;57.75
18900;BME280;9582;52.018;6.306;2023-05-10T01:04:25;104164.09;;;12.33;57.72
18900;BME280;9582;52.018;6.306;2023-05-10T01:06:52;104175.44;;;12.37;57.70
18900;BME280;9582;52.018;6.306;2023-05-10T01:09:19;104170.22;;;12.37;57.69
18900;BME280;9582;52.018;6.306;2023-05-10T01:11:47;104174.59;;;12.38;57.67
18900;BME280;9582;52.018;6.306;2023-05-10T01:14:17;104171.09;;;12.37;57.67
18900;BME280;9582;52.018;6.306;2023-05-10T01:16:44;104180.72;;;12.41;57.65
18900;BME280;9582;52.018;6.306;2023-05-10T01:19:17;104195.59;;;12.45;57.66
18900;BME280;9582;52.018;6.306;2023-05-10T01:21:50;104204.34;;;12.46;57.66
18900;BME280;9582;52.018;6.306;2023-05-10T01:24:40;104208.72;;;12.47;57.67
18900;BME280;9582;52.018;6.306;2023-05-10T01:27:36;104213.97;;;12.48;57.65
18900;BME280;9582;52.018;6.306;2023-05-10T01:30:42;104223.63;;;12.49;57.68
18900;BME280;9582;52.018;6.306;2023-05-10T01:33:19;104227.13;;;12.50;57.66
18900;BME280;9582;52.018;6.306;2023-05-10T01:35:53;104229.75;;;12.53;57.64
18900;BME280;9582;52.018;6.306;2023-05-10T01:38:28;104233.25;;;12.55;57.65
18900;BME280;9582;52.018;6.306;2023-05-10T01:41:03;104231.50;;;12.55;57.65
18900;BME280;9582;52.018;6.306;2023-05-10T01:43:40;104235.84;;;12.56;57.65
18900;BME280;9582;52.018;6.306;2023-05-10T01:46:11;104249.88;;;12.57;57.64
18900;BME280;9582;52.018;6.306;2023-05-10T01:48:46;104255.13;;;12.57;57.63
18900;BME280;9582;52.018;6.306;2023-05-10T01:51:14;104250.75;;;12.56;57.63
18900;BME280;9582;52.018;6.306;2023-05-10T01:53:44;104261.25;;;12.56;57.62
18900;BME280;9582;52.018;6.306;2023-05-10T01:56:13;104267.34;;;12.56;57.61
18900;BME280;9582;52.018;6.306;2023-05-10T01:58:43;104263.88;;;12.54;57.60
18900;BME280;9582;52.018;6.306;2023-05-10T02:01:12;104270.88;;;12.52;57.61
18900;BME280;9582;52.018;6.306;2023-05-10T02:03:42;104277.88;;;12.55;57.62
18900;BME280;9582;52.018;6.306;2023-05-10T02:06:10;104275.25;;;12.55;57.59
18900;BME280;9582;52.018;6.306;2023-05-10T02:08:39;104285.75;;;12.58;57.59
18900;BME280;9582;52.018;6.306;2023-05-10T02:11:07;104286.63;;;12.57;57.58
18900;BME280;9582;52.018;6.306;2023-05-10T02:13:36;104296.25;;;12.58;57.57
18900;BME280;9582;52.018;6.306;2023-05-10T02:16:05;104300.63;;;12.59;57.56
18900;BME280;9582;52.018;6.306;2023-05-10T02:18:33;104299.78;;;12.61;57.55
18900;BME280;9582;52.018;6.306;2023-05-10T02:21:03;104312.91;;;12.63;57.55
18900;BME280;9582;52.018;6.306;2023-05-10T02:23:31;104315.53;;;12.63;57.53
18900;BME280;9582;52.018;6.306;2023-05-10T02:25:58;104328.63;;;12.64;57.52
18900;BME280;9582;52.018;6.306;2023-05-10T02:28:27;104319.00;;;12.62;57.53
18900;BME280;9582;52.018;6.306;2023-05-10T02:30:55;104327.78;;;12.62;57.51
18900;BME280;9582;52.018;6.306;2023-05-10T02:33:22;104333.03;;;12.62;57.52
18900;BME280;9582;52.018;6.306;2023-05-10T02:35:52;104342.66;;;12.63;57.51
18900;BME280;9582;52.018;6.306;2023-05-10T02:38:20;104347.03;;;12.63;57.52
18900;BME280;9582;52.018;6.306;2023-05-10T02:40:50;104347.91;;;12.63;57.50
18900;BME280;9582;52.018;6.306;2023-05-10T02:43:18;104354.06;;;12.64;57.49
18900;BME280;9582;52.018;6.306;2023-05-10T02:45:47;104367.16;;;12.65;57.49
18900;BME280;9582;52.018;6.306;2023-05-10T02:48:14;104362.81;;;12.66;57.49
18900;BME280;9582;52.018;6.306;2023-05-10T02:50:43;104377.69;;;12.67;57.48
18900;BME280;9582;52.018;6.306;2023-05-10T02:53:13;104370.69;;;12.66;57.48
18900;BME280;9582;52.018;6.306;2023-05-10T02:55:45;104379.44;;;12.68;57.47
18900;BME280;9582;52.018;6.306;2023-05-10T02:58:15;104386.41;;;12.67;57.46
18900;BME280;9582;52.018;6.306;2023-05-10T03:00:44;104393.44;;;12.68;57.46
18900;BME280;9582;52.018;6.306;2023-05-10T03:03:11;104400.47;;;12.69;57.46
18900;BME280;9582;52.018;6.306;2023-05-10T03:05:37;104405.72;;;12.69;57.45
18900;BME280;9582;52.018;6.306;2023-05-10T03:08:04;104404.81;;;12.70;57.44
18900;BME280;9582;52.018;6.306;2023-05-10T03:10:32;104416.22;;;12.71;57.43
18900;BME280;9582;52.018;6.306;2023-05-10T03:13:13;104423.22;;;12.73;57.43
18900;BME280;9582;52.018;6.306;2023-05-10T03:15:47;104428.47;;;12.73;57.42
18900;BME280;9582;52.018;6.306;2023-05-10T03:18:22;104440.75;;;12.74;57.41
18900;BME280;9582;52.018;6.306;2023-05-10T03:20:50;104437.25;;;12.72;57.41
18900;BME280;9582;52.018;6.306;2023-05-10T03:23:22;104449.47;;;12.73;57.41
18900;BME280;9582;52.018;6.306;2023-05-10T03:25:53;104446.84;;;12.73;57.40
18900;BME280;9582;52.018;6.306;2023-05-10T03:28:25;104461.75;;;12.74;57.40
18900;BME280;9582;52.018;6.306;2023-05-10T03:30:52;104464.34;;;12.73;57.40
18900;BME280;9582;52.018;6.306;2023-05-10T03:33:19;104468.75;;;12.72;57.40
18900;BME280;9582;52.018;6.306;2023-05-10T03:35:46;104474.00;;;12.72;57.40
18900;BME280;9582;52.018;6.306;2023-05-10T03:38:13;104480.13;;;12.73;57.40
18900;BME280;9582;52.018;6.306;2023-05-10T03:40:40;104484.50;;;12.72;57.40
18900;BME280;9582;52.018;6.306;2023-05-10T03:43:07;104490.63;;;12.73;57.42
18900;BME280;9582;52.018;6.306;2023-05-10T03:45:35;104497.66;;;12.72;57.43
18900;BME280;9582;52.018;6.306;2023-05-10T03:48:02;104505.53;;;12.72;57.45
18900;BME280;9582;52.018;6.306;2023-05-10T03:50:28;104507.25;;;12.70;57.45
18900;BME280;9582;52.018;6.306;2023-05-10T03:52:55;104511.66;;;12.70;57.46
18900;BME280;9582;52.018;6.306;2023-05-10T03:55:22;104516.88;;;12.68;57.46
18900;BME280;9582;52.018;6.306;2023-05-10T03:57:49;104517.75;;;12.69;57.46
18900;BME280;9582;52.018;6.306;2023-05-10T04:00:16;104524.75;;;12.68;57.48
18900;BME280;9582;52.018;6.306;2023-05-10T04:02:44;104524.75;;;12.68;57.49
18900;BME280;9582;52.018;6.306;2023-05-10T04:05:15;104525.63;;;12.66;57.48
18900;BME280;9582;52.018;6.306;2023-05-10T04:07:42;104516.84;;;12.65;57.49
18900;BME280;9582;52.018;6.306;2023-05-10T04:10:10;104517.72;;;12.64;57.49
18900;BME280;9582;52.018;6.306;2023-05-10T04:12:37;104525.59;;;12.63;57.49
18900;BME280;9582;52.018;6.306;2023-05-10T04:15:04;104525.59;;;12.61;57.49
18900;BME280;9582;52.018;6.306;2023-05-10T04:17:31;104523.84;;;12.60;57.49
18900;BME280;9582;52.018;6.306;2023-05-10T04:19:59;104514.19;;;12.59;57.52
18900;BME280;9582;52.018;6.306;2023-05-10T04:22:25;104516.81;;;12.58;57.51
18900;BME280;9582;52.018;6.306;2023-05-10T04:24:53;104514.16;;;12.56;57.51
18900;BME280;9582;52.018;6.306;2023-05-10T04:27:19;104512.44;;;12.55;57.50
18900;BME280;9582;52.018;6.306;2023-05-10T04:29:45;104520.28;;;12.54;57.52
18900;BME280;9582;52.018;6.306;2023-05-10T04:32:12;104521.19;;;12.53;57.53
18900;BME280;9582;52.018;6.306;2023-05-10T04:34:38;104525.53;;;12.52;57.53
18900;BME280;9582;52.018;6.306;2023-05-10T04:37:06;104529.03;;;12.54;57.53
18900;BME280;9582;52.018;6.306;2023-05-10T04:39:33;104530.78;;;12.51;57.53
18900;BME280;9582;52.018;6.306;2023-05-10T04:42:00;104525.53;;;12.49;57.52
18900;BME280;9582;52.018;6.306;2023-05-10T04:44:28;104516.75;;;12.47;57.54
18900;BME280;9582;52.018;6.306;2023-05-10T04:46:54;104528.13;;;12.46;57.55
18900;BME280;9582;52.018;6.306;2023-05-10T04:49:21;104532.50;;;12.44;57.56
18900;BME280;9582;52.018;6.306;2023-05-10T04:51:47;104536.03;;;12.49;57.57
18900;BME280;9582;52.018;6.306;2023-05-10T04:54:15;104542.16;;;12.51;57.55
18900;BME280;9582;52.018;6.306;2023-05-10T04:56:42;104549.16;;;12.49;57.56
18900;BME280;9582;52.018;6.306;2023-05-10T04:59:08;104548.28;;;12.49;57.56
18900;BME280;9582;52.018;6.306;2023-05-10T05:01:35;104545.63;;;12.46;57.56
18900;BME280;9582;52.018;6.306;2023-05-10T05:04:01;104544.72;;;12.42;57.59
18900;BME280;9582;52.018;6.306;2023-05-10T05:06:28;104533.34;;;12.40;57.61
18900;BME280;9582;52.018;6.306;2023-05-10T05:08:54;104531.56;;;12.38;57.69
18900;BME280;9582;52.018;6.306;2023-05-10T05:11:22;104528.06;;;12.37;57.74
18900;BME280;9582;52.018;6.306;2023-05-10T05:13:49;104523.69;;;12.38;57.78
18900;BME280;9582;52.018;6.306;2023-05-10T05:16:15;104523.72;;;12.41;57.83
18900;BME280;9582;52.018;6.306;2023-05-10T05:18:41;104524.56;;;12.38;57.89
18900;BME280;9582;52.018;6.306;2023-05-10T05:21:13;104528.09;;;12.39;57.97
18900;BME280;9582;52.018;6.306;2023-05-10T05:23:40;104525.47;;;12.40;58.04
18900;BME280;9582;52.018;6.306;2023-05-10T05:26:07;104526.34;;;12.42;58.09
18900;BME280;9582;52.018;6.306;2023-05-10T05:28:35;104521.13;;;12.44;58.17
18900;BME280;9582;52.018;6.306;2023-05-10T05:31:02;104526.34;;;12.45;58.24
18900;BME280;9582;52.018;6.306;2023-05-10T05:33:29;104525.50;;;12.46;58.35
18900;BME280;9582;52.018;6.306;2023-05-10T05:35:55;104523.78;;;12.50;58.42
18900;BME280;9582;52.018;6.306;2023-05-10T05:38:22;104527.28;;;12.52;58.48
18900;BME280;9582;52.018;6.306;2023-05-10T05:40:49;104520.28;;;12.49;58.55
18900;BME280;9582;52.018;6.306;2023-05-10T05:43:15;104515.91;;;12.51;58.67
18900;BME280;9582;52.018;6.306;2023-05-10T05:45:43;104522.91;;;12.54;58.75
18900;BME280;9582;52.018;6.306;2023-05-10T05:48:09;104523.81;;;12.57;58.80
18900;BME280;9582;52.018;6.306;2023-05-10T05:50:36;104517.69;;;12.60;58.86
18900;BME280;9582;52.018;6.306;2023-05-10T05:53:02;104512.47;;;12.58;59.00
18900;BME280;9582;52.018;6.306;2023-05-10T05:55:29;104518.59;;;12.60;59.11
18900;BME280;9582;52.018;6.306;2023-05-10T05:57:56;104518.56;;;12.62;59.24
18900;BME280;9582;52.018;6.306;2023-05-10T06:00:23;104522.09;;;12.62;59.41
18900;BME280;9582;52.018;6.306;2023-05-10T06:02:51;104522.97;;;12.63;59.58
18900;BME280;9582;52.018;6.306;2023-05-10T06:05:18;104515.09;;;12.63;59.76
18900;BME280;9582;52.018;6.306;2023-05-10T06:07:45;104510.72;;;12.65;59.90
18900;BME280;9582;52.018;6.306;2023-05-10T06:10:11;104507.22;;;12.64;60.06
18900;BME280;9582;52.018;6.306;2023-05-10T06:12:38;104508.13;;;12.68;60.27
18900;BME280;9582;52.018;6.306;2023-05-10T06:15:05;104507.25;;;12.69;60.50
18900;BME280;9582;52.018;6.306;2023-05-10T06:17:32;104511.66;;;12.70;60.82
18900;BME280;9582;52.018;6.306;2023-05-10T06:20:00;104511.66;;;12.70;61.16
18900;BME280;9582;52.018;6.306;2023-05-10T06:22:27;104509.88;;;12.70;61.59
18900;BME280;9582;52.018;6.306;2023-05-10T06:24:53;104509.03;;;12.74;61.84
18900;BME280;9582;52.018;6.306;2023-05-10T06:27:20;104512.56;;;12.78;62.14
18900;BME280;9582;52.018;6.306;2023-05-10T06:29:46;104511.69;;;12.82;62.50
18900;BME280;9582;52.018;6.306;2023-05-10T06:32:13;104521.34;;;12.88;62.87
18900;BME280;9582;52.018;6.306;2023-05-10T06:34:39;104520.47;;;12.93;63.10
18900;BME280;9582;52.018;6.306;2023-05-10T06:37:07;104523.16;;;12.98;63.27
18900;BME280;9582;52.018;6.306;2023-05-10T06:39:34;104518.75;;;12.97;63.76
18900;BME280;9582;52.018;6.306;2023-05-10T06:42:00;104510.88;;;13.00;64.06
18900;BME280;9582;52.018;6.306;2023-05-10T06:44:31;104512.66;;;12.98;64.67
18900;BME280;9582;52.018;6.306;2023-05-10T06:46:58;104513.50;;;12.97;65.31
18900;BME280;9582;52.018;6.306;2023-05-10T06:49:24;104498.59;;;12.94;65.91
18900;BME280;9582;52.018;6.306;2023-05-10T06:51:51;104499.47;;;12.93;66.61
18900;BME280;9582;52.018;6.306;2023-05-10T06:54:19;104505.63;;;12.95;66.95
18900;BME280;9582;52.018;6.306;2023-05-10T06:56:45;104483.72;;;12.95;67.74
18900;BME280;9582;52.018;6.306;2023-05-10T06:59:12;104479.34;;;12.97;68.33
18900;BME280;9582;52.018;6.306;2023-05-10T07:01:39;104479.34;;;13.01;68.73
18900;BME280;9582;52.018;6.306;2023-05-10T07:04:05;104479.38;;;13.03;69.29
18900;BME280;9582;52.018;6.306;2023-05-10T07:06:32;104473.25;;;13.04;69.89
18900;BME280;9582;52.018;6.306;2023-05-10T07:08:59;104467.09;;;13.02;70.72
18900;BME280;9582;52.018;6.306;2023-05-10T07:11:27;104461.84;;;13.00;71.86
18900;BME280;9582;52.018;6.306;2023-05-10T07:13:54;104457.44;;;12.99;72.70
18900;BME280;9582;52.018;6.306;2023-05-10T07:16:20;104462.72;;;13.01;73.23
18900;BME280;9582;52.018;6.306;2023-05-10T07:18:47;104457.44;;;12.99;73.79
18900;BME280;9582;52.018;6.306;2023-05-10T07:21:15;104442.56;;;12.97;74.62
18900;BME280;9582;52.018;6.306;2023-05-10T07:23:42;104431.16;;;12.93;75.49
18900;BME280;9582;52.018;6.306;2023-05-10T07:26:08;104439.94;;;12.92;76.20
18900;BME280;9582;52.018;6.306;2023-05-10T07:28:38;104432.03;;;12.91;76.94
18900;BME280;9582;52.018;6.306;2023-05-10T07:31:04;104428.53;;;12.92;77.16
18900;BME280;9582;52.018;6.306;2023-05-10T07:33:31;104430.28;;;12.93;77.10
18900;BME280;9582;52.018;6.306;2023-05-10T07:35:57;104425.03;;;12.93;77.14
18900;BME280;9582;52.018;6.306;2023-05-10T07:38:24;104419.78;;;12.90;78.32
18900;BME280;9582;52.018;6.306;2023-05-10T07:40:50;104415.38;;;12.87;78.66
18900;BME280;9582;52.018;6.306;2023-05-10T07:43:17;104413.66;;;12.86;78.39
18900;BME280;9582;52.018;6.306;2023-05-10T07:45:44;104399.63;;;12.84;77.98
18900;BME280;9582;52.018;6.306;2023-05-10T07:48:11;104397.84;;;12.85;77.01
18900;BME280;9582;52.018;6.306;2023-05-10T07:50:37;104399.63;;;12.84;76.19
18900;BME280;9582;52.018;6.306;2023-05-10T07:53:04;104402.25;;;12.84;75.52
18900;BME280;9582;52.018;6.306;2023-05-10T07:55:30;104397.88;;;12.88;74.96
18900;BME280;9582;52.018;6.306;2023-05-10T07:57:57;104404.88;;;12.93;74.21
18900;BME280;9582;52.018;6.306;2023-05-10T08:00:26;104405.78;;;12.94;74.01
18900;BME280;9582;52.018;6.306;2023-05-10T08:02:54;104411.03;;;12.97;73.20
18900;BME280;9582;52.018;6.306;2023-05-10T08:05:20;104404.91;;;12.99;72.68
18900;BME280;9582;52.018;6.306;2023-05-10T08:07:47;104414.56;;;13.03;72.14
18900;BME280;9582;52.018;6.306;2023-05-10T08:10:14;104413.69;;;13.06;72.03
18900;BME280;9582;52.018;6.306;2023-05-10T08:12:40;104412.78;;;13.07;72.01
18900;BME280;9582;52.018;6.306;2023-05-10T08:15:08;104413.72;;;13.07;72.67
18900;BME280;9582;52.018;6.306;2023-05-10T08:17:34;104421.63;;;13.12;72.70
18900;BME280;9582;52.018;6.306;2023-05-10T08:20:03;104432.13;;;13.21;72.62
18900;BME280;9582;52.018;6.306;2023-05-10T08:22:29;104434.78;;;13.30;72.71
18900;BME280;9582;52.018;6.306;2023-05-10T08:24:56;104444.47;;;13.46;72.51
18900;BME280;9582;52.018;6.306;2023-05-10T08:27:22;104457.59;;;13.60;73.25
18900;BME280;9582;52.018;6.306;2023-05-10T08:29:49;104476.03;;;13.76;74.52
18900;BME280;9582;52.018;6.306;2023-05-10T08:32:15;104492.66;;;13.89;78.62
18900;BME280;9582;52.018;6.306;2023-05-10T08:34:42;104500.56;;;14.04;94.08
18900;BME280;9582;52.018;6.306;2023-05-10T08:37:09;104507.56;;;14.11;100.00
18900;BME280;9582;52.018;6.306;2023-05-10T08:39:38;104511.94;;;14.24;100.00
18900;BME280;9582;52.018;6.306;2023-05-10T08:42:05;104516.34;;;14.39;100.00
18900;BME280;9582;52.018;6.306;2023-05-10T08:44:34;104503.16;;;14.30;100.00
18900;BME280;9582;52.018;6.306;2023-05-10T08:47:04;104505.84;;;14.33;100.00
18900;BME280;9582;52.018;6.306;2023-05-10T08:49:32;104486.47;;;14.29;100.00
18900;BME280;9582;52.018;6.306;2023-05-10T08:52:02;104495.28;;;14.40;100.00
18900;BME280;9582;52.018;6.306;2023-05-10T08:54:33;104488.22;;;14.52;100.00
18900;BME280;9582;52.018;6.306;2023-05-10T08:56:59;104481.19;;;14.58;100.00
18900;BME280;9582;52.018;6.306;2023-05-10T08:59:27;104469.75;;;14.59;100.00
18900;BME280;9582;52.018;6.306;2023-05-10T09:01:55;104468.84;;;14.63;100.00
18900;BME280;9582;52.018;6.306;2023-05-10T09:04:24;104450.41;;;14.63;100.00
18900;BME280;9582;52.018;6.306;2023-05-10T09:06:50;104426.75;;;14.59;100.00
18900;BME280;9582;52.018;6.306;2023-05-10T09:09:17;104407.41;;;14.61;100.00
18900;BME280;9582;52.018;6.306;2023-05-10T09:11:45;104386.31;;;14.60;100.00
18900;BME280;9582;52.018;6.306;2023-05-10T09:14:12;104358.25;;;14.57;100.00
18900;BME280;9582;52.018;6.306;2023-05-10T09:16:39;104339.00;;;14.51;100.00
18900;BME280;9582;52.018;6.306;2023-05-10T09:19:06;104319.69;;;14.42;100.00
18900;BME280;9582;52.018;6.306;2023-05-10T09:21:34;104297.78;;;14.37;100.00
18900;BME280;9582;52.018;6.306;2023-05-10T09:24:03;104281.97;;;14.37;100.00
18900;BME280;9582;52.018;6.306;2023-05-10T09:26:29;104261.81;;;14.35;100.00
18900;BME280;9582;52.018;6.306;2023-05-10T09:28:59;104253.00;;;14.42;100.00
18900;BME280;9582;52.018;6.306;2023-05-10T09:31:43;104244.22;;;14.40;100.00
18900;BME280;9582;52.018;6.306;2023-05-10T09:34:11;104217.97;;;14.28;100.00
18900;BME280;9582;52.018;6.306;2023-05-10T09:36:50;104211.84;;;14.21;100.00
18900;BME280;9582;52.018;6.306;2023-05-10T09:39:17;104196.03;;;14.24;100.00
18900;BME280;9582;52.018;6.306;2023-05-10T09:41:44;104182.84;;;14.26;100.00
18900;BME280;9582;52.018;6.306;2023-05-10T09:44:11;104165.31;;;14.25;100.00
18900;BME280;9582;52.018;6.306;2023-05-10T09:46:38;104144.22;;;14.26;100.00
18900;BME280;9582;52.018;6.306;2023-05-10T09:49:05;104126.66;;;14.30;100.00
18900;BME280;9582;52.018;6.306;2023-05-10T09:51:31;104115.25;;;14.29;100.00
18900;BME280;9582;52.018;6.306;2023-05-10T09:54:09;104095.13;;;14.21;100.00
18900;BME280;9582;52.018;6.306;2023-05-10T09:56:37;104069.66;;;14.23;100.00
18900;BME280;9582;52.018;6.306;2023-05-10T09:59:04;104066.88;;;14.42;100.00
18900;BME280;9582;52.018;6.306;2023-05-10T10:01:33;104090.13;;;14.89;100.00
18900;BME280;9582;52.018;6.306;2023-05-10T10:04:02;104080.34;;;15.00;100.00
18900;BME280;9582;52.018;6.306;2023-05-10T10:06:29;104076.78;;;15.04;100.00
18900;BME280;9582;52.018;6.306;2023-05-10T10:08:56;104062.72;;;15.06;100.00
18900;BME280;9582;52.018;6.306;2023-05-10T10:11:23;104026.81;;;14.94;100.00
18900;BME280;9582;52.018;6.306;2023-05-10T10:13:50;104000.53;;;14.88;100.00
18900;BME280;9582;52.018;6.306;2023-05-10T10:16:17;103989.97;;;14.91;100.00
18900;BME280;9582;52.018;6.306;2023-05-10T10:18:44;103963.56;;;14.94;100.00
18900;BME280;9582;52.018;6.306;2023-05-10T10:21:13;103953.88;;;14.97;100.00
18900;BME280;9582;52.018;6.306;2023-05-10T10:23:39;103942.31;;;15.08;100.00
18900;BME280;9582;52.018;6.306;2023-05-10T10:26:07;103934.22;;;15.21;100.00
18900;BME280;9582;52.018;6.306;2023-05-10T10:28:40;103927.72;;;15.43;100.00
18900;BME280;9582;52.018;6.306;2023-05-10T10:31:18;103924.72;;;15.68;100.00
18900;BME280;9582;52.018;6.306;2023-05-10T10:33:58;103921.88;;;15.78;100.00
18900;BME280;9582;52.018;6.306;2023-05-10T10:36:26;103897.97;;;15.87;100.00
18900;BME280;9582;52.018;6.306;2023-05-10T10:38:57;103885.50;;;15.95;100.00
18900;BME280;9582;52.018;6.306;2023-05-10T10:41:31;103847.81;;;15.87;100.00
18900;BME280;9582;52.018;6.306;2023-05-10T10:47:28;103798.66;;;15.82;100.00
18900;BME280;9582;52.018;6.306;2023-05-10T10:50:06;103763.53;;;15.80;100.00
18900;BME280;9582;52.018;6.306;2023-05-10T10:52:34;103731.75;;;15.84;100.00
18900;BME280;9582;52.018;6.306;2023-05-10T10:55:03;103705.25;;;15.90;100.00
18900;BME280;9582;52.018;6.306;2023-05-10T10:57:43;103664.19;;;15.77;100.00
18900;BME280;9582;52.018;6.306;2023-05-10T11:00:21;103627.16;;;15.82;100.00
18900;BME280;9582;52.018;6.306;2023-05-10T11:02:49;103627.66;;;16.34;100.00
18900;BME280;9582;52.018;6.306;2023-05-10T11:05:37;103607.03;;;16.50;100.00
18900;BME280;9582;52.018;6.306;2023-05-10T11:08:10;103568.56;;;16.40;100.00
18900;BME280;9582;52.018;6.306;2023-05-10T11:10:37;103538.38;;;16.48;100.00
18900;BME280;9582;52.018;6.306;2023-05-10T11:13:05;103519.94;;;16.47;100.00
18900;BME280;9582;52.018;6.306;2023-05-10T11:15:33;103467.56;;;16.30;100.00
18900;BME280;9582;52.018;6.306;2023-05-10T11:18:00;103446.38;;;16.33;100.00
18900;BME280;9582;52.018;6.306;2023-05-10T11:20:43;103408.94;;;16.48;100.00
18900;BME280;9582;52.018;6.306;2023-05-10T11:23:13;103396.63;;;16.49;100.00
18900;BME280;9582;52.018;6.306;2023-05-10T11:25:41;103373.81;;;16.46;100.00
18900;BME280;9582;52.018;6.306;2023-05-10T11:28:09;103346.75;;;16.38;100.00
18900;BME280;9582;52.018;6.306;2023-05-10T11:30:36;103319.47;;;16.38;100.00
18900;BME280;9582;52.018;6.306;2023-05-10T11:33:02;103320.00;;;16.49;100.00
18900;BME280;9582;52.018;6.306;2023-05-10T11:35:29;103318.97;;;16.56;100.00
18900;BME280;9582;52.018;6.306;2023-05-10T11:37:57;103312.28;;;16.73;100.00
18900;BME280;9582;52.018;6.306;2023-05-10T11:40:23;103284.97;;;16.73;100.00
18900;BME280;9582;52.018;6.306;2023-05-10T11:42:51;103277.03;;;16.73;100.00
18900;BME280;9582;52.018;6.306;2023-05-10T11:45:18;103278.19;;;16.92;100.00
18900;BME280;9582;52.018;6.306;2023-05-10T11:47:47;103284.94;;;17.01;100.00
18900;BME280;9582;52.018;6.306;2023-05-10T11:50:14;103267.16;;;17.06;100.00
18900;BME280;9582;52.018;6.306;2023-05-10T11:52:41;103249.63;;;17.03;100.00
18900;BME280;9582;52.018;6.306;2023-05-10T11:55:09;103223.66;;;16.90;100.00
18900;BME280;9582;52.018;6.306;2023-05-10T11:57:35;103205.81;;;16.68;100.00
18900;BME280;9582;52.018;6.306;2023-05-10T12:00:04;103190.56;;;16.50;100.00
18900;BME280;9582;52.018;6.306;2023-05-10T12:02:33;103199.56;;;16.43;100.00
18900;BME280;9582;52.018;6.306;2023-05-10T12:04:59;103193.47;;;16.41;100.00
18900;BME280;9582;52.018;6.306;2023-05-10T12:07:26;103185.81;;;16.34;100.00
18900;BME280;9582;52.018;6.306;2023-05-10T12:10:03;103195.63;;;16.29;100.00
18900;BME280;9582;52.018;6.306;2023-05-10T12:12:37;103204.38;;;16.31;100.00
18900;BME280;9582;52.018;6.306;2023-05-10T12:15:05;103203.66;;;16.26;100.00
18900;BME280;9582;52.018;6.306;2023-05-10T12:17:37;103199.03;;;16.32;100.00
18900;BME280;9582;52.018;6.306;2023-05-10T12:20:17;103210.00;;;16.48;100.00
18900;BME280;9582;52.018;6.306;2023-05-10T12:22:45;103214.19;;;16.56;100.00
18900;BME280;9582;52.018;6.306;2023-05-10T12:25:12;103202.75;;;16.56;100.00
18900;BME280;9582;52.018;6.306;2023-05-10T12:27:40;103197.78;;;16.45;100.00
18900;BME280;9582;52.018;6.306;2023-05-10T12:30:08;103190.31;;;16.30;100.00
18900;BME280;9582;52.018;6.306;2023-05-10T12:32:38;103188.75;;;16.23;100.00
18900;BME280;9582;52.018;6.306;2023-05-10T12:35:06;103188.63;;;16.28;100.00
18900;BME280;9582;52.018;6.306;2023-05-10T12:37:33;103192.97;;;16.29;100.00
18900;BME280;9582;52.018;6.306;2023-05-10T12:40:05;103196.38;;;16.34;100.00
18900;BME280;9582;52.018;6.306;2023-05-10T12:42:33;103195.22;;;16.42;100.00
18900;BME280;9582;52.018;6.306;2023-05-10T12:45:02;103191.75;;;16.40;100.00
18900;BME280;9582;52.018;6.306;2023-05-10T12:47:29;103176.94;;;16.35;100.00
18900;BME280;9582;52.018;6.306;2023-05-10T12:49:55;103179.56;;;16.36;100.00
18900;BME280;9582;52.018;6.306;2023-05-10T12:52:22;103158.13;;;16.17;100.00
18900;BME280;9582;52.018;6.306;2023-05-10T12:54:48;103154.59;;;16.18;100.00
18900;BME280;9582;52.018;6.306;2023-05-10T12:57:15;103159.88;;;16.18;100.00
18900;BME280;9582;52.018;6.306;2023-05-10T12:59:41;103154.44;;;16.23;100.00
18900;BME280;9582;52.018;6.306;2023-05-10T13:02:09;103155.28;;;16.25;100.00
18900;BME280;9582;52.018;6.306;2023-05-10T13:04:36;103153.59;;;16.23;100.00
18900;BME280;9582;52.018;6.306;2023-05-10T13:07:05;103153.59;;;16.23;100.00